Main page
METAR-TAF:

METAR-TAF

Airports :

Sanderson Field Airport

Shelton, Washington, United States

latitude: 47-14-17N, longitude: 123-08-27W, elevation: 269 ft

Current weather observation

The report was made 1 hour and 2 minutes ago, at 15:53 UTC
Wind 6 mph from the West
Temperature 52°F
Humidity 66%
Pressure 30.06 in. Hg
Visibility: 10 miles
Broken clouds at a height of 12000 ft

METAR: KSHN 181553Z AUTO 27005KT 10SM BKN120 11/05 A3006 RMK AO2 SLP183 T01060050

Time: 09:55 (16:55 UTC)


TAF: missing

Weather observations and forecasts of more than 4000 airports (METAR and TAF reports).

The available stations are represented by yellow and red dots on the map.

Hover mouse over dot to see the name of the station.

Then click to see weather observations and forecasts.

To change the map : click on the green buttons with a black cross to zoom in, on the green button with a dash to zoom out, or on the green arrows for adjacent maps.


METAR-TAF: